Time;durP1;ratioP1;P1;durP2;ratioP2;P2;SDS_P1;SDS_P2;PMS_P1;PMS_P2;Temp;Humidity;BMP_temperature;BMP_pressure;BME280_temperature;BME280_humidity;BME280_pressure;Samples;Min_cycle;Max_cycle;Signal;HPM_P1;HPM_P2
2021/03/10 00:01:50;;;;;;;;;;;4.40;88.90;;;;;;6217074;23;19899;-84
2021/03/10 00:04:18;;;;;;;;;;;4.30;88.80;;;;;;6217225;23;19899;-82
2021/03/10 00:06:46;;;;;;;;;;;4.30;88.80;;;;;;6242685;23;20237;-84
2021/03/10 00:09:11;;;;;;;;;;;4.20;88.90;;;;;;6218368;23;20261;-83
2021/03/10 00:11:40;;;;;;;;;;;4.10;88.80;;;;;;6213337;23;19939;-85
2021/03/10 00:14:08;;;;;;;;;;;4.10;88.80;;;;;;6189703;23;20234;-83
2021/03/10 00:16:36;;;;;;;;;;;4.10;88.80;;;;;;6243909;23;20257;-83
2021/03/10 00:19:01;;;;;;;;;;;4.00;88.80;;;;;;6244936;23;19900;-83
2021/03/10 00:21:36;;;;;;;;;;;4.00;88.90;;;;;;6245049;23;19906;-84
2021/03/10 00:24:02;;;;;;;;;;;3.90;88.90;;;;;;6243156;23;20285;-83
2021/03/10 00:26:27;;;;;;;;;;;3.90;88.90;;;;;;6244896;23;19998;-84
2021/03/10 00:28:55;;;;;;;;;;;3.90;89.20;;;;;;6218518;23;20254;-82
2021/03/10 00:31:26;;;;;;;;;;;3.90;89.30;;;;;;6217259;23;19919;-83
2021/03/10 00:33:54;;;;;;;;;;;3.90;89.60;;;;;;6242683;23;19986;-83
2021/03/10 00:36:23;;;;;;;;;;;3.80;89.60;;;;;;6242529;23;19899;-83
2021/03/10 00:38:48;;;;;;;;;;;3.80;89.80;;;;;;6242490;23;19918;-83
2021/03/10 00:41:19;;;;;;;;;;;3.80;90.00;;;;;;6238272;23;20221;-83
2021/03/10 00:43:44;;;;;;;;;;;3.80;90.10;;;;;;6214526;23;19903;-84
2021/03/10 00:46:13;;;;;;;;;;;3.90;90.10;;;;;;6244393;23;20238;-83
2021/03/10 00:48:41;;;;;;;;;;;3.80;90.10;;;;;;6243877;23;19907;-84
2021/03/10 00:51:14;;;;;;;;;;;3.80;90.00;;;;;;6242669;23;19903;-83
2021/03/10 00:53:44;;;;;;;;;;;3.80;90.10;;;;;;6242665;23;19900;-84
2021/03/10 00:56:14;;;;;;;;;;;3.80;90.10;;;;;;6243867;23;19987;-83
2021/03/10 00:58:50;;;;;;;;;;;;;;;;;;;;;
2021/03/10 01:01:18;;;;;;;;;;;3.80;90.10;;;;;;6244694;23;19986;-82
2021/03/10 01:03:46;;;;;;;;;;;3.70;90.00;;;;;;6243252;23;19922;-83
2021/03/10 01:06:15;;;;;;;;;;;3.70;90.00;;;;;;6242119;23;19908;-83
2021/03/10 01:08:58;;;;;;;;;;;3.70;90.10;;;;;;6244714;23;19899;-83
2021/03/10 01:11:24;;;;;;;;;;;3.70;90.00;;;;;;6219875;23;19904;-83
2021/03/10 01:13:50;;;;;;;;;;;3.60;90.10;;;;;;6241120;23;20633;-85
2021/03/10 01:16:20;;;;;;;;;;;3.60;90.10;;;;;;6244551;23;19907;-84
2021/03/10 01:18:50;;;;;;;;;;;3.60;90.10;;;;;;6246774;23;19899;-83
2021/03/10 01:21:19;;;;;;;;;;;3.60;90.10;;;;;;6219351;23;20014;-84
2021/03/10 01:23:47;;;;;;;;;;;3.50;90.00;;;;;;6220434;23;20294;-83
2021/03/10 01:26:12;;;;;;;;;;;3.50;90.10;;;;;;6243808;23;19918;-84
2021/03/10 01:28:45;;;;;;;;;;;3.50;90.10;;;;;;6242309;23;19903;-84
2021/03/10 01:31:18;;;;;;;;;;;3.50;90.10;;;;;;6217963;23;20603;-83
2021/03/10 01:33:46;;;;;;;;;;;3.40;90.10;;;;;;6244069;23;20221;-83
2021/03/10 01:36:12;;;;;;;;;;;3.40;90.00;;;;;;6243631;23;20013;-83
2021/03/10 01:38:38;;;;;;;;;;;3.40;90.10;;;;;;6244380;23;19934;-84
2021/03/10 01:41:05;;;;;;;;;;;3.30;90.10;;;;;;6239247;23;19906;-84
2021/03/10 01:43:34;;;;;;;;;;;3.40;90.10;;;;;;6216243;23;19974;-83
2021/03/10 01:46:00;;;;;;;;;;;3.40;90.10;;;;;;6243522;23;20367;-83
2021/03/10 01:48:25;;;;;;;;;;;3.30;90.10;;;;;;6243867;23;19900;-83
2021/03/10 01:51:03;;;;;;;;;;;3.30;90.10;;;;;;6219208;23;19923;-83
2021/03/10 01:53:28;;;;;;;;;;;3.30;90.10;;;;;;6244752;23;19910;-83
2021/03/10 01:55:59;;;;;;;;;;;3.30;90.10;;;;;;6245531;23;19899;-85
2021/03/10 01:58:27;;;;;;;;;;;3.20;90.20;;;;;;6243960;23;20222;-82
2021/03/10 02:00:56;;;;;;;;;;;3.20;90.10;;;;;;6218651;23;20211;-83
2021/03/10 02:03:26;;;;;;;;;;;3.20;90.20;;;;;;6217961;23;20314;-83
2021/03/10 02:05:52;;;;;;;;;;;3.10;90.20;;;;;;6217660;23;19931;-83
2021/03/10 02:08:28;;;;;;;;;;;3.10;90.20;;;;;;6243767;23;20233;-83
2021/03/10 02:11:15;;;;;;;;;;;3.10;90.20;;;;;;6241382;23;19910;-85
2021/03/10 02:13:55;;;;;;;;;;;3.10;90.20;;;;;;6241097;22;19915;-84
2021/03/10 02:16:33;;;;;;;;;;;3.00;90.10;;;;;;6219193;23;19931;-84
2021/03/10 02:18:58;;;;;;;;;;;3.00;90.20;;;;;;6218967;23;19903;-83
2021/03/10 02:21:29;;;;;;;;;;;3.00;90.20;;;;;;6218396;23;19927;-83
2021/03/10 02:24:01;;;;;;;;;;;3.00;90.20;;;;;;6245690;23;19899;-83
2021/03/10 02:26:31;;;;;;;;;;;3.00;90.20;;;;;;6244727;23;20221;-83
2021/03/10 02:29:04;;;;;;;;;;;3.00;90.20;;;;;;6245123;23;19982;-86
2021/03/10 02:31:39;;;;;;;;;;;2.90;90.20;;;;;;6243790;23;19906;-83
2021/03/10 02:34:13;;;;;;;;;;;2.90;90.10;;;;;;6243481;23;20237;-83
2021/03/10 02:36:39;;;;;;;;;;;2.90;90.20;;;;;;6244672;23;19907;-85
2021/03/10 02:39:10;;;;;;;;;;;2.90;90.20;;;;;;6243016;23;20310;-82
2021/03/10 02:41:45;;;;;;;;;;;2.90;90.20;;;;;;6240847;23;19950;-84
2021/03/10 02:44:14;;;;;;;;;;;2.90;90.20;;;;;;6215366;23;19909;-83
2021/03/10 02:46:43;;;;;;;;;;;2.80;90.40;;;;;;6243417;23;19907;-83
2021/03/10 02:49:15;;;;;;;;;;;2.80;90.20;;;;;;6244144;23;19903;-83
2021/03/10 02:51:43;;;;;;;;;;;2.80;90.20;;;;;;6243281;23;19900;-84
2021/03/10 02:54:12;;;;;;;;;;;2.80;90.50;;;;;;6242245;23;19900;-83
2021/03/10 02:56:37;;;;;;;;;;;2.80;90.30;;;;;;6243366;23;19982;-83
2021/03/10 02:59:03;;;;;;;;;;;2.80;90.30;;;;;;6242378;23;19942;-83
2021/03/10 03:01:29;;;;;;;;;;;2.80;90.40;;;;;;6244776;23;19900;-83
2021/03/10 03:03:54;;;;;;;;;;;2.90;90.50;;;;;;6217663;23;19910;-83
2021/03/10 03:06:20;;;;;;;;;;;2.90;90.50;;;;;;6243759;23;19908;-83
2021/03/10 03:08:47;;;;;;;;;;;2.90;90.60;;;;;;6242513;23;19954;-83
2021/03/10 03:11:16;;;;;;;;;;;3.00;90.60;;;;;;6243856;23;19900;-83
2021/03/10 03:13:41;;;;;;;;;;;3.00;90.70;;;;;;6217600;23;19965;-83
2021/03/10 03:16:17;;;;;;;;;;;;;;;;;;;;;
2021/03/10 03:18:52;;;;;;;;;;;3.10;90.80;;;;;;6244415;23;19982;-82
2021/03/10 03:21:18;;;;;;;;;;;3.10;90.80;;;;;;6246193;23;19903;-83
2021/03/10 03:23:44;;;;;;;;;;;3.10;90.90;;;;;;6242185;23;19900;-83
2021/03/10 03:26:10;;;;;;;;;;;3.20;90.90;;;;;;6243049;23;20273;-83
2021/03/10 03:28:38;;;;;;;;;;;3.20;90.90;;;;;;6243473;23;19899;-84
2021/03/10 03:31:11;;;;;;;;;;;3.20;90.90;;;;;;6244251;23;19906;-85
2021/03/10 03:33:39;;;;;;;;;;;3.20;90.90;;;;;;6242788;23;19899;-83
2021/03/10 03:36:11;;;;;;;;;;;3.30;90.90;;;;;;6218147;23;19978;-86
2021/03/10 03:38:37;;;;;;;;;;;3.30;91.00;;;;;;6243066;23;19906;-83
2021/03/10 03:41:03;;;;;;;;;;;3.30;90.90;;;;;;6243630;23;19931;-83
2021/03/10 03:43:34;;;;;;;;;;;3.40;91.00;;;;;;6244999;23;19903;-83
2021/03/10 03:46:04;;;;;;;;;;;3.40;91.00;;;;;;6242514;23;20272;-83
2021/03/10 03:48:30;;;;;;;;;;;3.40;91.00;;;;;;6244308;23;19906;-84
2021/03/10 03:51:19;;;;;;;;;;;3.40;91.00;;;;;;6244332;23;19985;-83
2021/03/10 03:53:52;;;;;;;;;;;3.50;91.00;;;;;;6217596;23;19905;-85
2021/03/10 03:56:17;;;;;;;;;;;3.50;91.00;;;;;;6237109;23;19935;-84
2021/03/10 03:58:45;;;;;;;;;;;3.50;91.00;;;;;;6238650;23;20277;-83
2021/03/10 04:01:13;;;;;;;;;;;3.60;91.10;;;;;;6217701;23;19910;-84
2021/03/10 04:03:39;;;;;;;;;;;3.60;91.10;;;;;;6218941;23;19950;-83
2021/03/10 04:06:07;;;;;;;;;;;3.60;91.10;;;;;;6243749;23;19911;-83
2021/03/10 04:08:35;;;;;;;;;;;3.60;91.00;;;;;;6244186;23;20264;-83
2021/03/10 04:11:00;;;;;;;;;;;3.60;91.00;;;;;;6241457;23;20301;-82
2021/03/10 04:13:28;;;;;;;;;;;3.70;91.10;;;;;;6239766;22;19918;-83
2021/03/10 04:15:56;;;;;;;;;;;3.70;91.10;;;;;;6238236;23;19903;-83
2021/03/10 04:18:40;;;;;;;;;;;3.70;91.10;;;;;;6240394;23;20306;-82
2021/03/10 04:21:08;;;;;;;;;;;3.70;91.10;;;;;;6243608;23;19899;-83
2021/03/10 04:23:34;;;;;;;;;;;3.80;91.10;;;;;;6242843;23;19900;-82
2021/03/10 04:26:02;;;;;;;;;;;3.80;91.10;;;;;;6244320;23;20034;-82
2021/03/10 04:28:30;;;;;;;;;;;3.80;91.10;;;;;;6215748;23;20379;-83
2021/03/10 04:30:58;;;;;;;;;;;3.90;91.10;;;;;;6217867;23;19900;-83
2021/03/10 04:33:24;;;;;;;;;;;3.90;91.10;;;;;;6242307;23;20229;-83
2021/03/10 04:35:52;;;;;;;;;;;3.90;91.10;;;;;;6217700;23;19982;-84
2021/03/10 04:38:18;;;;;;;;;;;3.90;91.10;;;;;;6245561;23;19899;-83
2021/03/10 04:40:43;;;;;;;;;;;3.90;91.10;;;;;;6249397;23;19922;-83
2021/03/10 04:43:09;;;;;;;;;;;4.00;91.10;;;;;;6253164;23;19899;-83
2021/03/10 04:45:37;;;;;;;;;;;3.90;91.10;;;;;;6254027;23;21739;-83
2021/03/10 04:48:02;;;;;;;;;;;4.00;91.10;;;;;;6252329;23;20146;-83
2021/03/10 04:50:33;;;;;;;;;;;4.00;91.10;;;;;;6258370;23;19903;-84
2021/03/10 04:53:02;;;;;;;;;;;4.00;91.10;;;;;;6254106;23;19910;-83
2021/03/10 04:55:30;;;;;;;;;;;4.00;91.10;;;;;;6245100;23;19907;-83
2021/03/10 04:57:58;;;;;;;;;;;4.00;91.10;;;;;;6242456;23;19908;-85
2021/03/10 05:00:23;;;;;;;;;;;4.10;91.20;;;;;;6241903;23;19982;-82
2021/03/10 05:02:51;;;;;;;;;;;4.10;91.20;;;;;;6242269;23;19953;-86
2021/03/10 05:05:27;;;;;;;;;;;4.10;91.20;;;;;;6244007;23;19955;-83
2021/03/10 05:07:55;;;;;;;;;;;4.10;91.10;;;;;;6245172;23;20333;-84
2021/03/10 05:10:23;;;;;;;;;;;4.10;91.20;;;;;;6243593;23;19899;-82
2021/03/10 05:12:48;;;;;;;;;;;4.10;91.20;;;;;;6218231;23;20034;-82
2021/03/10 05:15:17;;;;;;;;;;;4.20;91.20;;;;;;6217826;23;20229;-84
2021/03/10 05:17:47;;;;;;;;;;;4.10;91.20;;;;;;6242042;23;19900;-81
2021/03/10 05:20:15;;;;;;;;;;;4.20;91.20;;;;;;6247314;23;19900;-84
2021/03/10 05:22:41;;;;;;;;;;;4.20;91.20;;;;;;6243743;23;19998;-83
2021/03/10 05:25:08;;;;;;;;;;;4.20;91.20;;;;;;6219431;23;19933;-81
2021/03/10 05:27:41;;;;;;;;;;;4.20;91.20;;;;;;6244022;23;19907;-82
2021/03/10 05:30:08;;;;;;;;;;;4.20;91.20;;;;;;6220107;23;19903;-83
2021/03/10 05:42:23;;;;;;;;;;;;;;;;;;;;;
2021/03/10 05:45:18;;;;;;;;;;;4.20;91.20;;;;;;6221896;23;20373;-88
2021/03/10 05:47:55;;;;;;;;;;;4.20;91.20;;;;;;6235741;23;19912;-87
2021/03/10 05:50:21;;;;;;;;;;;4.20;91.30;;;;;;6247924;23;19900;-88
2021/03/10 05:53:14;;;;;;;;;;;4.20;91.30;;;;;;6247225;23;19958;-89
2021/03/10 06:06:00;;;;;;;;;;;;;;;;;;;;;
2021/03/10 06:28:27;;;;;;;;;;;;;;;;;;;;;
2021/03/10 06:51:12;;;;;;;;;;;;;;;;;;;;;
2021/03/10 06:57:35;;;;;;;;;;;;;;;;;;;;;
2021/03/10 07:13:23;;;;;;;;;;;4.50;91.50;;;;;;5868754;24;19935;-90
2021/03/10 07:16:33;;;;;;;;;;;4.50;91.50;;;;;;5839882;24;19919;-90
2021/03/10 07:25:46;;;;;;;;;;;;;;;;;;;;;
2021/03/10 08:14:17;;;;;;;;;;;;;;;;;;;;;
2021/03/10 08:26:55;;;;;;;;;;;;;;;;;;;;;
2021/03/10 08:33:02;;;;;;;;;;;;;;;;;;;;;
2021/03/10 08:39:01;;;;;;;;;;;5.60;91.70;;;;;;5925167;24;20311;-93
2021/03/10 08:42:10;;;;;;;;;;;5.70;91.80;;;;;;5903853;24;19930;-93
2021/03/10 08:51:33;;;;;;;;;;;;;;;;;;;;;
2021/03/10 08:54:44;;;;;;;;;;;;;;;;;;;;;
2021/03/10 08:57:23;;;;;;;;;;;;;;;;;;;;;
2021/03/10 09:03:18;;;;;;;;;;;;;;;;;;;;;
2021/03/10 09:06:24;;;;;;;;;;;;;;;;;;;;;
2021/03/10 09:12:19;;;;;;;;;;;6.10;91.70;;;;;;6043443;23;19914;-89
2021/03/10 09:27:49;;;;;;;;;;;;;;;;;;;;;
2021/03/10 09:43:51;;;;;;;;;;;;;;;;;;;;;
2021/03/10 09:59:15;;;;;;;;;;;;;;;;;;;;;
2021/03/10 10:02:16;;;;;;;;;;;;;;;;;;;;;
2021/03/10 10:08:42;;;;;;;;;;;6.80;91.30;;;;;;5898597;24;20282;-90
2021/03/10 10:14:43;;;;;;;;;;;;;;;;;;;;;
2021/03/10 10:27:30;;;;;;;;;;;;;;;;;;;;;
2021/03/10 10:30:38;;;;;;;;;;;;;;;;;;;;;
2021/03/10 10:33:27;;;;;;;;;;;;;;;;;;;;;
2021/03/10 10:39:27;;;;;;;;;;;7.20;91.00;;;;;;6022449;23;19906;-89
2021/03/10 10:45:42;;;;;;;;;;;;;;;;;;;;;
2021/03/10 10:51:47;;;;;;;;;;;7.40;90.70;;;;;;6079106;23;19908;-93
2021/03/10 10:57:16;;;;;;;;;;;;;;;;;;;;;
2021/03/10 11:18:17;;;;;;;;;;;;;;;;;;;;;
2021/03/10 11:30:49;;;;;;;;;;;7.80;89.80;;;;;;6023597;23;19906;-96
2021/03/10 11:34:02;;;;;;;;;;;;;;;;;;;;;
2021/03/10 11:40:06;;;;;;;;;;;7.80;89.30;;;;;;6015301;23;19909;-93
2021/03/10 11:56:08;;;;;;;;;;;8.00;88.60;;;;;;5984045;23;20356;-93
2021/03/10 12:05:31;;;;;;;;;;;;;;;;;;;;;
2021/03/10 12:27:09;;;;;;;;;;;;;;;;;;;;;
2021/03/10 13:04:54;;;;;;;;;;;;;;;;;;;;;
2021/03/10 13:14:36;;;;;;;;;;;;;;;;;;;;;
2021/03/10 15:10:12;;;;;;;;;;;;;;;;;;;;;
2021/03/10 17:57:08;;;;;;;;;;;;;;;;;;;;;
2021/03/10 18:09:42;;;;;;;;;;;;;;;;;;;;;
2021/03/10 18:12:40;;;;;;;;;;;8.60;78.80;;;;;;6245344;23;20369;-89
2021/03/10 18:19:12;;;;;;;;;;;;;;;;;;;;;
2021/03/10 18:21:47;;;;;;;;;;;8.40;79.80;;;;;;6246191;23;19982;-89
2021/03/10 18:27:56;;;;;;;;;;;;;;;;;;;;;
2021/03/10 18:40:17;;;;;;;;;;;;;;;;;;;;;
2021/03/10 18:43:35;;;;;;;;;;;8.30;80.30;;;;;;6093329;23;20308;-89
2021/03/10 18:55:40;;;;;;;;;;;;;;;;;;;;;
2021/03/10 18:58:39;;;;;;;;;;;;;;;;;;;;;
2021/03/10 19:01:16;;;;;;;;;;;8.30;80.60;;;;;;6062819;23;19973;-89
2021/03/10 19:20:12;;;;;;;;;;;;;;;;;;;;;
2021/03/10 19:26:10;;;;;;;;;;;;;;;;;;;;;
2021/03/10 19:29:29;;;;;;;;;;;8.10;80.90;;;;;;6091939;23;20371;-90
2021/03/10 19:32:25;;;;;;;;;;;;;;;;;;;;;
2021/03/10 19:35:20;;;;;;;;;;;;;;;;;;;;;
2021/03/10 19:38:01;;;;;;;;;;;8.10;81.80;;;;;;6184516;23;19975;-91
2021/03/10 19:44:24;;;;;;;;;;;;;;;;;;;;;
2021/03/10 19:47:29;;;;;;;;;;;;;;;;;;;;;
2021/03/10 19:50:17;;;;;;;;;;;8.00;82.60;;;;;;6137619;23;20057;-92
2021/03/10 20:02:30;;;;;;;;;;;;;;;;;;;;;
2021/03/10 20:05:26;;;;;;;;;;;7.80;83.40;;;;;;6130433;23;19916;-90
2021/03/10 20:11:00;;;;;;;;;;;7.80;83.80;;;;;;6130501;23;19908;-90
2021/03/10 20:13:29;;;;;;;;;;;7.80;84.20;;;;;;6082171;23;19904;-89
2021/03/10 20:16:24;;;;;;;;;;;;;;;;;;;;;
2021/03/10 20:22:18;;;;;;;;;;;;;;;;;;;;;
2021/03/10 20:24:53;;;;;;;;;;;7.70;84.70;;;;;;6127279;23;19987;-89
2021/03/10 20:27:27;;;;;;;;;;;7.60;84.70;;;;;;6214563;23;19912;-91
2021/03/10 20:30:22;;;;;;;;;;;7.70;84.90;;;;;;6225636;23;19899;-90
2021/03/10 20:33:10;;;;;;;;;;;;;;;;;;;;;
2021/03/10 20:35:56;;;;;;;;;;;7.60;85.40;;;;;;6260670;23;19923;-89
2021/03/10 20:41:56;;;;;;;;;;;;;;;;;;;;;
2021/03/10 20:44:30;;;;;;;;;;;7.50;85.70;;;;;;6260548;23;19957;-89
2021/03/10 20:50:08;;;;;;;;;;;7.50;86.10;;;;;;6211187;23;19911;-89
2021/03/10 20:52:48;;;;;;;;;;;7.40;86.20;;;;;;6197471;23;19903;-89
2021/03/10 20:58:21;;;;;;;;;;;7.40;86.60;;;;;;6264911;22;19915;-90
2021/03/10 21:01:13;;;;;;;;;;;7.40;86.80;;;;;;6250029;22;19907;-89
2021/03/10 21:07:14;;;;;;;;;;;;;;;;;;;;;
2021/03/10 21:10:13;;;;;;;;;;;;;;;;;;;;;
2021/03/10 21:16:19;;;;;;;;;;;;;;;;;;;;;
2021/03/10 21:25:31;;;;;;;;;;;7.40;87.50;;;;;;6156310;23;19900;-90
2021/03/10 21:44:33;;;;;;;;;;;7.30;87.90;;;;;;6021112;23;19985;-90
2021/03/10 21:47:23;;;;;;;;;;;;;;;;;;;;;
2021/03/10 21:56:23;;;;;;;;;;;;;;;;;;;;;
2021/03/10 22:11:44;;;;;;;;;;;;;;;;;;;;;
2021/03/10 22:33:34;;;;;;;;;;;;;;;;;;;;;
2021/03/10 22:39:53;;;;;;;;;;;;;;;;;;;;;
2021/03/10 22:42:44;;;;;;;;;;;;;;;;;;;;;
2021/03/10 22:51:48;;;;;;;;;;;7.20;90.00;;;;;;6152768;23;19954;-88
2021/03/10 23:01:31;;;;;;;;;;;7.20;90.10;;;;;;6152059;23;20366;-91
2021/03/10 23:04:18;;;;;;;;;;;7.20;90.20;;;;;;6183147;23;19904;-87
2021/03/10 23:07:24;;;;;;;;;;;7.20;90.30;;;;;;6153655;23;20216;-88
2021/03/10 23:18:58;;;;;;;;;;;7.20;90.50;;;;;;6010451;23;19907;-89
2021/03/10 23:25:09;;;;;;;;;;;;;;;;;;;;;
2021/03/10 23:28:10;;;;;;;;;;;;;;;;;;;;;
2021/03/10 23:30:59;;;;;;;;;;;;;;;;;;;;;
2021/03/10 23:33:53;;;;;;;;;;;7.10;90.80;;;;;;6153862;23;20289;-89
2021/03/10 23:43:04;;;;;;;;;;;7.10;90.80;;;;;;6129398;23;20234;-90
2021/03/10 23:45:58;;;;;;;;;;;7.10;90.80;;;;;;6223070;22;19927;-89
2021/03/10 23:52:21;;;;;;;;;;;7.10;90.90;;;;;;6279036;22;20287;-89
2021/03/10 23:55:09;;;;;;;;;;;7.10;90.90;;;;;;6276730;22;19903;-90
2021/03/10 23:57:58;;;;;;;;;;;7.10;91.00;;;;;;6239320;23;19965;-87
